createdAt,value
2018-01-28T00:00:35.082Z,67.10
2018-01-28T00:03:03.106Z,67.30
2018-01-28T00:05:30.811Z,67.20
2018-01-28T00:07:58.389Z,67.30
2018-01-28T00:10:26.111Z,67.30
2018-01-28T00:12:53.775Z,67.30
2018-01-28T00:15:21.366Z,67.40
2018-01-28T00:17:49.101Z,67.50
2018-01-28T00:20:16.694Z,67.50
2018-01-28T00:22:44.331Z,67.60
2018-01-28T00:25:11.898Z,67.70
2018-01-28T00:27:39.949Z,67.80
2018-01-28T00:30:07.542Z,67.80
2018-01-28T00:32:35.214Z,67.80
2018-01-28T00:35:02.858Z,67.80
2018-01-28T00:37:30.416Z,67.90
2018-01-28T00:39:58.233Z,67.90
2018-01-28T00:42:25.944Z,67.90
2018-01-28T00:44:53.513Z,68.00
2018-01-28T00:47:21.188Z,68.00
2018-01-28T00:49:48.880Z,68.10
2018-01-28T00:52:39.731Z,68.10
2018-01-28T00:55:07.309Z,68.20
2018-01-28T00:57:34.968Z,68.30
2018-01-28T01:00:02.675Z,68.30
2018-01-28T01:02:30.482Z,68.30
2018-01-28T01:04:58.144Z,68.40
2018-01-28T01:07:25.806Z,68.40
2018-01-28T01:09:53.457Z,68.40
2018-01-28T01:12:21.115Z,68.50
2018-01-28T01:14:48.784Z,68.50
2018-01-28T01:17:16.462Z,68.50
2018-01-28T01:19:44.126Z,68.60
2018-01-28T01:22:11.762Z,68.60
2018-01-28T01:24:39.471Z,68.70
2018-01-28T01:27:07.135Z,68.70
2018-01-28T01:29:35.162Z,68.80
2018-01-28T01:32:10.473Z,68.80
2018-01-28T01:34:38.686Z,68.90
2018-01-28T01:37:06.338Z,68.90
2018-01-28T01:39:34.859Z,68.90
2018-01-28T01:42:02.550Z,69.00
2018-01-28T01:44:30.572Z,69.00
2018-01-28T01:46:58.199Z,69.00
2018-01-28T01:49:34.643Z,69.20
2018-01-28T01:52:02.182Z,69.20
2018-01-28T01:54:29.807Z,69.20
2018-01-28T01:56:57.491Z,69.30
2018-01-28T01:59:25.113Z,69.30
2018-01-28T02:01:52.777Z,69.40
2018-01-28T02:04:20.494Z,69.40
2018-01-28T02:06:48.130Z,69.50
2018-01-28T02:09:15.798Z,69.50
2018-01-28T02:11:43.455Z,69.50
2018-01-28T02:14:11.091Z,69.60
2018-01-28T02:16:38.750Z,69.60
2018-01-28T02:19:06.399Z,69.70
2018-01-28T02:21:34.077Z,69.70
2018-01-28T02:24:01.738Z,69.80
2018-01-28T02:26:29.386Z,69.80
2018-01-28T02:28:57.146Z,69.90
2018-01-28T02:31:24.717Z,70.00
2018-01-28T02:33:52.380Z,70.00
2018-01-28T02:36:20.034Z,70.10
2018-01-28T02:38:47.681Z,70.10
2018-01-28T02:41:15.346Z,70.10
2018-01-28T02:43:46.919Z,70.20
2018-01-28T02:46:14.553Z,70.20
2018-01-28T02:48:42.287Z,70.20
2018-01-28T02:51:09.889Z,70.20
2018-01-28T02:53:37.553Z,70.30
2018-01-28T02:56:05.256Z,70.30
2018-01-28T02:58:32.876Z,70.40
2018-01-28T03:01:00.538Z,70.40
2018-01-28T03:03:28.606Z,70.50
2018-01-28T03:05:56.274Z,70.40
2018-01-28T03:08:23.916Z,70.50
2018-01-28T03:10:51.598Z,70.50
2018-01-28T03:13:19.234Z,70.60
2018-01-28T03:15:46.884Z,70.70
2018-01-28T03:18:14.577Z,70.60
2018-01-28T03:20:42.278Z,70.80
2018-01-28T03:23:16.520Z,70.80
2018-01-28T03:25:44.167Z,70.80
2018-01-28T03:28:11.729Z,70.90
2018-01-28T03:30:39.327Z,70.80
2018-01-28T03:33:06.868Z,70.90
2018-01-28T03:35:34.556Z,71.00
2018-01-28T03:38:02.194Z,71.00
2018-01-28T03:40:29.882Z,71.10
2018-01-28T03:42:57.515Z,71.10
2018-01-28T03:45:25.256Z,71.00
2018-01-28T03:47:53.259Z,71.20
2018-01-28T03:50:20.928Z,71.20
2018-01-28T03:52:48.566Z,71.20
2018-01-28T03:55:16.835Z,71.20
2018-01-28T03:57:44.522Z,71.20
2018-01-28T04:00:12.202Z,71.20
2018-01-28T04:02:39.945Z,71.30
2018-01-28T04:05:07.485Z,71.30
2018-01-28T04:07:35.149Z,71.40
2018-01-28T04:10:02.791Z,71.40
2018-01-28T04:12:30.490Z,71.40
2018-01-28T04:14:58.986Z,71.50
2018-01-28T04:17:26.593Z,71.50
2018-01-28T04:19:54.149Z,71.60
2018-01-28T04:22:22.958Z,71.70
2018-01-28T04:24:50.615Z,71.70
2018-01-28T04:27:18.277Z,71.60
2018-01-28T04:29:45.930Z,71.70
2018-01-28T04:32:13.582Z,71.80
2018-01-28T04:34:41.157Z,71.70
2018-01-28T04:37:08.723Z,71.70
2018-01-28T04:39:36.362Z,71.80
2018-01-28T04:42:04.018Z,71.80
2018-01-28T04:44:31.699Z,71.80
2018-01-28T04:46:59.410Z,71.90
2018-01-28T04:49:27.028Z,71.90
2018-01-28T04:51:54.718Z,71.90
2018-01-28T04:54:22.380Z,72.00
2018-01-28T04:56:52.864Z,72.20
2018-01-28T04:59:20.551Z,72.20
2018-01-28T05:01:48.210Z,72.30
2018-01-28T05:04:15.869Z,72.30
2018-01-28T05:06:43.505Z,72.30
2018-01-28T05:09:11.601Z,72.30
2018-01-28T05:11:39.240Z,72.30
2018-01-28T05:14:06.924Z,72.40
2018-01-28T05:16:34.562Z,72.50
2018-01-28T05:19:02.216Z,72.50
2018-01-28T05:21:29.938Z,72.50
2018-01-28T05:23:57.561Z,72.50
2018-01-28T05:26:25.211Z,72.60
2018-01-28T05:28:52.877Z,72.60
2018-01-28T05:31:20.520Z,72.70
2018-01-28T05:33:48.201Z,72.60
2018-01-28T05:36:15.886Z,72.70
2018-01-28T05:38:43.515Z,72.70
2018-01-28T05:41:11.186Z,72.80
2018-01-28T05:43:38.819Z,72.80
2018-01-28T05:46:06.379Z,72.80
2018-01-28T05:48:33.934Z,72.80
2018-01-28T05:51:01.886Z,72.90
2018-01-28T05:53:29.477Z,72.90
2018-01-28T05:55:57.185Z,72.90
2018-01-28T05:58:24.809Z,72.90
2018-01-28T06:00:52.488Z,73.00
2018-01-28T06:03:20.146Z,73.00
2018-01-28T06:05:47.803Z,73.00
2018-01-28T06:08:15.437Z,73.10
2018-01-28T06:10:43.120Z,73.10
2018-01-28T06:13:10.747Z,73.10
2018-01-28T06:15:38.444Z,73.20
2018-01-28T06:18:06.282Z,73.10
2018-01-28T06:20:33.963Z,73.20
2018-01-28T06:23:02.006Z,73.30
2018-01-28T06:25:29.991Z,73.30
2018-01-28T06:27:57.605Z,73.30
2018-01-28T06:30:25.235Z,73.40
2018-01-28T06:32:52.857Z,73.40
2018-01-28T06:35:20.401Z,73.40
2018-01-28T06:37:48.425Z,73.50
2018-01-28T06:40:16.095Z,73.50
2018-01-28T06:42:43.734Z,73.50
2018-01-28T06:45:11.404Z,73.50
2018-01-28T06:47:39.030Z,73.50
2018-01-28T06:50:06.679Z,73.60
2018-01-28T06:52:35.000Z,73.60
2018-01-28T06:55:02.642Z,73.60
2018-01-28T06:57:30.290Z,73.70
2018-01-28T06:59:58.004Z,73.70
2018-01-28T07:02:25.841Z,73.70
2018-01-28T07:04:53.483Z,73.70
2018-01-28T07:07:21.127Z,73.80
2018-01-28T07:09:48.832Z,73.80
2018-01-28T07:12:16.453Z,73.80
2018-01-28T07:14:44.171Z,73.90
2018-01-28T07:17:12.238Z,73.80
2018-01-28T07:19:39.850Z,73.90
2018-01-28T07:22:07.524Z,74.00
2018-01-28T07:24:35.242Z,73.90
2018-01-28T07:27:02.862Z,74.00
2018-01-28T07:29:30.493Z,74.00
2018-01-28T07:31:58.186Z,74.10
2018-01-28T07:34:25.807Z,74.10
2018-01-28T07:36:53.495Z,74.20
2018-01-28T07:39:21.203Z,74.20
2018-01-28T07:41:48.815Z,74.20
2018-01-28T07:44:16.477Z,74.20
2018-01-28T07:46:44.221Z,74.30
2018-01-28T07:49:12.191Z,74.40
2018-01-28T07:51:39.865Z,74.40
2018-01-28T07:54:07.507Z,74.40
2018-01-28T07:56:35.192Z,74.50
2018-01-28T07:59:02.836Z,74.50
2018-01-28T08:01:30.497Z,74.50
2018-01-28T08:03:58.981Z,74.60
2018-01-28T08:06:26.631Z,74.60
2018-01-28T08:08:59.022Z,74.50
2018-01-28T08:11:33.270Z,74.70
2018-01-28T08:14:06.526Z,74.60
2018-01-28T08:16:34.076Z,74.70
2018-01-28T08:19:01.831Z,74.70
2018-01-28T08:21:29.838Z,74.70
2018-01-28T08:23:57.511Z,74.70
2018-01-28T08:26:25.219Z,74.80
2018-01-28T08:28:56.717Z,74.80
2018-01-28T08:31:24.332Z,74.80
2018-01-28T08:33:52.018Z,74.80
2018-01-28T08:36:19.685Z,74.80
2018-01-28T08:38:47.342Z,74.90
2018-01-28T08:41:17.032Z,74.90
2018-01-28T08:43:46.975Z,75.00
2018-01-28T08:46:14.605Z,74.90
2018-01-28T08:48:42.280Z,75.10
2018-01-28T08:51:28.282Z,75.10
2018-01-28T08:53:55.904Z,75.10
2018-01-28T08:56:23.870Z,75.10
2018-01-28T08:58:51.467Z,75.10
2018-01-28T09:01:19.019Z,75.10
2018-01-28T09:03:46.675Z,75.20
2018-01-28T09:06:14.340Z,75.20
2018-01-28T09:08:41.994Z,75.20
2018-01-28T09:11:09.656Z,75.20
2018-01-28T09:13:37.305Z,75.30
2018-01-28T09:16:04.954Z,75.40
2018-01-28T09:18:40.682Z,75.40
2018-01-28T09:21:08.296Z,75.40
2018-01-28T09:23:35.926Z,75.40
2018-01-28T09:26:03.644Z,75.40
2018-01-28T09:28:31.712Z,75.50
2018-01-28T09:30:59.318Z,75.50
2018-01-28T09:33:26.989Z,75.50
2018-01-28T09:35:54.663Z,75.50
2018-01-28T09:38:22.950Z,75.50
2018-01-28T09:40:50.586Z,75.60
2018-01-28T09:43:18.263Z,75.60
2018-01-28T09:45:45.941Z,75.60
2018-01-28T09:48:13.550Z,75.60
2018-01-28T09:50:41.257Z,75.60
2018-01-28T09:53:08.991Z,75.70
2018-01-28T09:55:36.623Z,75.70
2018-01-28T09:58:04.651Z,75.80
2018-01-28T10:00:32.351Z,75.80
2018-01-28T10:03:05.087Z,75.80
2018-01-28T10:05:32.745Z,75.80
2018-01-28T10:08:00.368Z,75.80
2018-01-28T10:10:28.338Z,76.00
2018-01-28T10:12:55.924Z,76.00
2018-01-28T10:15:23.666Z,76.00
2018-01-28T10:17:51.275Z,76.00
2018-01-28T10:20:18.892Z,76.00
2018-01-28T10:22:46.548Z,76.00
2018-01-28T10:25:22.754Z,76.00
2018-01-28T10:27:50.298Z,76.10
2018-01-28T10:30:17.974Z,76.10
2018-01-28T10:32:45.587Z,76.20
2018-01-28T10:35:13.317Z,76.20
2018-01-28T10:37:40.914Z,76.20
2018-01-28T10:40:08.649Z,76.20
2018-01-28T10:42:36.700Z,76.30
2018-01-28T10:45:04.310Z,76.30
2018-01-28T10:47:32.000Z,76.40
2018-01-28T10:49:59.648Z,76.40
2018-01-28T10:52:27.412Z,76.40
2018-01-28T10:54:55.008Z,76.40
2018-01-28T10:57:22.655Z,76.40
2018-01-28T10:59:50.315Z,76.50
2018-01-28T11:02:17.959Z,76.50
2018-01-28T11:04:45.666Z,76.50
2018-01-28T11:07:13.719Z,76.60
2018-01-28T11:09:41.326Z,76.60
2018-01-28T11:12:08.972Z,76.70
2018-01-28T11:14:41.131Z,76.70
2018-01-28T11:17:11.061Z,76.70
2018-01-28T11:19:38.816Z,76.70
2018-01-28T11:22:11.140Z,76.80
2018-01-28T11:24:38.782Z,76.80
2018-01-28T11:27:16.769Z,76.80
2018-01-28T11:29:47.052Z,76.90
2018-01-28T11:32:14.629Z,76.90
2018-01-28T11:34:42.165Z,77.00
2018-01-28T11:37:09.771Z,77.00
2018-01-28T11:39:37.421Z,77.00
2018-01-28T11:42:05.086Z,77.10
2018-01-28T11:44:32.742Z,77.00
2018-01-28T11:47:00.426Z,77.10
2018-01-28T11:49:28.100Z,77.00
2018-01-28T11:51:55.767Z,77.00
2018-01-28T11:54:23.463Z,76.80
2018-01-28T11:56:51.455Z,76.10
2018-01-28T11:59:22.997Z,76.10
2018-01-28T12:01:50.697Z,75.50
2018-01-28T12:04:18.391Z,75.20
2018-01-28T12:06:46.423Z,74.50
2018-01-28T12:09:14.065Z,74.50
2018-01-28T12:11:41.735Z,74.00
2018-01-28T12:14:09.372Z,74.00
2018-01-28T12:16:41.190Z,73.50
2018-01-28T12:19:08.886Z,73.20
2018-01-28T12:21:36.873Z,73.00
2018-01-28T12:24:04.592Z,73.00
2018-01-28T12:26:32.290Z,72.80
2018-01-28T12:29:05.080Z,72.50
2018-01-28T12:31:32.645Z,72.40
2018-01-28T12:34:00.327Z,72.30
2018-01-28T12:36:28.106Z,72.10
2018-01-28T12:38:55.656Z,71.90
2018-01-28T12:41:23.305Z,72.00
2018-01-28T12:43:50.934Z,72.00
2018-01-28T12:46:18.634Z,71.90
2018-01-28T12:48:46.250Z,71.90
2018-01-28T12:51:13.933Z,71.70
2018-01-28T12:53:52.757Z,71.90
2018-01-28T12:56:20.365Z,71.70
2018-01-28T12:58:47.947Z,71.70
2018-01-28T13:01:15.630Z,71.80
2018-01-28T13:03:43.315Z,71.60
2018-01-28T13:06:10.943Z,71.40
2018-01-28T13:08:38.663Z,71.30
2018-01-28T13:11:06.283Z,71.30
2018-01-28T13:13:33.977Z,71.30
2018-01-28T13:16:02.048Z,71.20
2018-01-28T13:18:29.684Z,71.20
2018-01-28T13:20:57.340Z,71.30
2018-01-28T13:23:25.025Z,71.20
2018-01-28T13:25:53.046Z,71.10
2018-01-28T13:28:20.738Z,71.10
2018-01-28T13:30:58.672Z,71.20
2018-01-28T13:33:26.397Z,71.00
2018-01-28T13:35:53.951Z,70.80
2018-01-28T13:38:21.634Z,70.80
2018-01-28T13:40:49.280Z,71.00
2018-01-28T13:43:17.028Z,70.60
2018-01-28T13:45:44.668Z,70.40
2018-01-28T13:48:12.702Z,70.60
2018-01-28T13:50:40.381Z,70.60
2018-01-28T13:53:08.439Z,70.30
2018-01-28T13:55:36.022Z,70.30
2018-01-28T13:58:03.596Z,70.40
2018-01-28T14:00:31.154Z,70.50
2018-01-28T14:02:58.866Z,70.40
2018-01-28T14:05:26.487Z,70.10
2018-01-28T14:07:54.147Z,70.30
2018-01-28T14:10:21.848Z,70.40
2018-01-28T14:12:50.380Z,70.20
2018-01-28T14:15:18.015Z,70.20
2018-01-28T14:17:45.599Z,70.20
2018-01-28T14:20:13.259Z,70.30
2018-01-28T14:22:41.137Z,70.10
2018-01-28T14:25:11.283Z,70.20
2018-01-28T14:27:38.930Z,70.20
2018-01-28T14:30:11.098Z,70.20
2018-01-28T14:32:38.749Z,70.20
2018-01-28T14:35:06.416Z,70.00
2018-01-28T14:37:35.066Z,70.20
2018-01-28T14:40:02.611Z,70.20
2018-01-28T14:42:30.626Z,69.90
2018-01-28T14:44:58.307Z,69.90
2018-01-28T14:47:25.949Z,69.90
2018-01-28T14:49:53.571Z,70.00
2018-01-28T14:52:23.231Z,69.50
2018-01-28T14:54:50.778Z,69.50
2018-01-28T14:57:18.424Z,69.80
2018-01-28T14:59:46.064Z,69.60
2018-01-28T15:02:14.220Z,69.30
2018-01-28T15:04:42.265Z,69.20
2018-01-28T15:07:11.106Z,69.20
2018-01-28T15:09:38.775Z,69.20
2018-01-28T15:12:06.426Z,69.10
2018-01-28T15:14:34.182Z,69.10
2018-01-28T15:17:02.211Z,68.90
2018-01-28T15:19:29.854Z,68.90
2018-01-28T15:21:57.465Z,68.90
2018-01-28T15:24:25.176Z,69.10
2018-01-28T15:26:52.928Z,69.10
2018-01-28T15:29:20.486Z,68.70
2018-01-28T15:31:48.106Z,68.60
2018-01-28T15:34:16.136Z,68.60
2018-01-28T15:36:44.178Z,68.60
2018-01-28T15:39:11.963Z,68.60
2018-01-28T15:41:40.508Z,68.70
2018-01-28T15:44:08.176Z,69.20
2018-01-28T15:46:35.807Z,68.60
2018-01-28T15:49:03.540Z,68.40
2018-01-28T15:51:31.240Z,68.60
2018-01-28T15:53:58.840Z,68.70
2018-01-28T15:56:26.470Z,68.50
2018-01-28T15:58:54.126Z,68.40
2018-01-28T16:01:21.738Z,68.70
2018-01-28T16:03:49.402Z,68.70
2018-01-28T16:06:16.996Z,68.40
2018-01-28T16:08:44.518Z,68.20
2018-01-28T16:11:12.230Z,68.30
2018-01-28T16:13:40.342Z,68.40
2018-01-28T16:16:08.397Z,68.20
2018-01-28T16:18:36.029Z,68.00
2018-01-28T16:21:03.780Z,68.10
2018-01-28T16:23:31.783Z,68.30
2018-01-28T16:25:59.449Z,68.00
2018-01-28T16:28:27.455Z,68.10
2018-01-28T16:30:55.110Z,68.20
2018-01-28T16:33:22.713Z,68.30
2018-01-28T16:35:50.354Z,68.10
2018-01-28T16:38:18.446Z,68.10
2018-01-28T16:40:46.065Z,68.40
2018-01-28T16:43:13.685Z,68.40
2018-01-28T16:45:47.268Z,68.20
2018-01-28T16:48:17.190Z,68.00
2018-01-28T16:50:52.909Z,68.20
2018-01-28T16:53:20.497Z,68.20
2018-01-28T16:55:48.162Z,68.00
2018-01-28T16:58:28.650Z,67.90
2018-01-28T17:00:59.276Z,68.00
2018-01-28T17:03:26.921Z,68.00
2018-01-28T17:05:59.317Z,67.80
2018-01-28T17:08:26.910Z,68.00
2018-01-28T17:10:54.909Z,68.10
2018-01-28T17:13:23.241Z,68.00
2018-01-28T17:15:50.845Z,67.90
2018-01-28T17:18:18.509Z,67.70
2018-01-28T17:20:46.278Z,67.90
2018-01-28T17:23:13.850Z,68.00
2018-01-28T17:25:41.561Z,68.10
2018-01-28T17:28:09.586Z,67.90
2018-01-28T17:30:37.265Z,68.20
2018-01-28T17:33:05.231Z,68.10
2018-01-28T17:35:58.079Z,68.20
2018-01-28T17:38:25.659Z,68.30
2018-01-28T17:40:53.277Z,68.40
2018-01-28T17:43:34.673Z,68.40
2018-01-28T17:46:28.183Z,68.20
2018-01-28T17:48:55.827Z,68.20
2018-01-28T17:51:23.506Z,68.30
2018-01-28T17:53:51.134Z,68.40
2018-01-28T17:56:19.268Z,68.20
2018-01-28T17:58:46.885Z,68.10
2018-01-28T18:01:14.549Z,68.40
2018-01-28T18:03:42.923Z,68.40
2018-01-28T18:06:10.575Z,68.20
2018-01-28T18:08:38.264Z,68.20
2018-01-28T18:11:11.351Z,68.10
2018-01-28T18:13:46.979Z,68.20
2018-01-28T18:16:14.645Z,68.10
2018-01-28T18:18:42.231Z,68.10
2018-01-28T18:21:09.881Z,68.40
2018-01-28T18:23:37.534Z,68.50
2018-01-28T18:26:05.248Z,68.60
2018-01-28T18:28:32.895Z,69.10
2018-01-28T18:31:05.196Z,69.60
2018-01-28T18:33:32.945Z,70.10
2018-01-28T18:36:05.286Z,70.40
2018-01-28T18:38:33.312Z,70.70
2018-01-28T18:41:00.979Z,71.30
2018-01-28T18:43:29.065Z,71.60
2018-01-28T18:45:56.727Z,71.80
2018-01-28T18:48:24.841Z,72.00
2018-01-28T18:50:52.464Z,72.30
2018-01-28T18:53:20.126Z,72.60
2018-01-28T18:55:47.816Z,72.80
2018-01-28T18:58:15.863Z,72.80
2018-01-28T19:00:43.530Z,73.00
2018-01-28T19:03:11.574Z,73.20
2018-01-28T19:05:39.271Z,73.20
2018-01-28T19:08:07.309Z,73.40
2018-01-28T19:10:35.349Z,73.50
2018-01-28T19:13:03.009Z,73.70
2018-01-28T19:15:30.675Z,73.80
2018-01-28T19:17:58.409Z,73.70
2018-01-28T19:20:26.442Z,73.90
2018-01-28T19:22:54.108Z,74.10
2018-01-28T19:25:21.806Z,74.10
2018-01-28T19:27:49.482Z,74.20
2018-01-28T19:30:17.495Z,74.40
2018-01-28T19:32:45.172Z,74.40
2018-01-28T19:35:13.244Z,74.40
2018-01-28T19:37:41.322Z,74.50
2018-01-28T19:40:08.962Z,74.60
2018-01-28T19:42:36.684Z,74.80
2018-01-28T19:45:05.350Z,74.80
2018-01-28T19:47:32.906Z,74.90
2018-01-28T19:50:05.331Z,75.00
2018-01-28T19:52:33.409Z,75.10
2018-01-28T19:55:01.987Z,75.20
2018-01-28T19:57:29.660Z,75.20
2018-01-28T19:59:57.247Z,75.30
2018-01-28T20:02:24.829Z,75.40
2018-01-28T20:04:52.476Z,75.50
2018-01-28T20:07:20.602Z,75.40
2018-01-28T20:09:48.659Z,75.50
2018-01-28T20:12:16.331Z,75.60
2018-01-28T20:14:47.408Z,75.60
2018-01-28T20:17:15.135Z,75.70
2018-01-28T20:19:42.750Z,75.80
2018-01-28T20:22:11.519Z,76.00
2018-01-28T20:24:41.336Z,76.00
2018-01-28T20:27:09.055Z,75.90
2018-01-28T20:29:36.668Z,75.90
2018-01-28T20:32:04.423Z,76.00
2018-01-28T20:34:32.446Z,76.00
2018-01-28T20:37:00.311Z,76.00
2018-01-28T20:39:28.322Z,76.10
2018-01-28T20:41:56.034Z,76.10
2018-01-28T20:44:24.156Z,76.20
2018-01-28T20:46:51.796Z,76.30
2018-01-28T20:49:19.845Z,76.30
2018-01-28T20:51:47.465Z,76.10
2018-01-28T20:54:15.167Z,76.30
2018-01-28T20:56:42.996Z,76.30
2018-01-28T20:59:10.706Z,76.30
2018-01-28T21:01:38.776Z,76.40
2018-01-28T21:04:06.898Z,76.50
2018-01-28T21:06:34.714Z,76.40
2018-01-28T21:09:02.838Z,76.40
2018-01-28T21:11:30.451Z,76.50
2018-01-28T21:13:58.084Z,76.60
2018-01-28T21:16:25.785Z,76.60
2018-01-28T21:18:53.813Z,76.60
2018-01-28T21:21:21.482Z,76.60
2018-01-28T21:23:49.549Z,76.60
2018-01-28T21:26:17.227Z,76.70
2018-01-28T21:28:45.245Z,76.60
2018-01-28T21:31:13.345Z,76.60
2018-01-28T21:33:40.987Z,76.70
2018-01-28T21:36:08.697Z,76.80
2018-01-28T21:38:36.726Z,76.80
2018-01-28T21:41:04.437Z,76.80
2018-01-28T21:43:32.478Z,76.80
2018-01-28T21:46:00.140Z,76.90
2018-01-28T21:48:27.781Z,76.90
2018-01-28T21:50:55.413Z,76.90
2018-01-28T21:53:23.079Z,76.90
2018-01-28T21:55:50.867Z,77.10
2018-01-28T21:58:18.456Z,77.00
2018-01-28T22:00:46.571Z,77.00
2018-01-28T22:03:14.165Z,77.10
2018-01-28T22:05:41.835Z,77.10
2018-01-28T22:08:09.521Z,77.20
2018-01-28T22:10:37.521Z,77.10
2018-01-28T22:13:05.215Z,77.20
2018-01-28T22:15:35.327Z,77.20
2018-01-28T22:18:03.080Z,77.20
2018-01-28T22:20:30.661Z,77.20
2018-01-28T22:22:58.328Z,77.20
2018-01-28T22:25:26.004Z,77.20
2018-01-28T22:27:59.374Z,77.20
2018-01-28T22:30:27.043Z,77.30
2018-01-28T22:32:54.664Z,77.30
2018-01-28T22:35:22.756Z,77.30
2018-01-28T22:38:16.279Z,77.30
2018-01-28T22:40:44.294Z,77.30
2018-01-28T22:43:12.346Z,77.30
2018-01-28T22:45:41.488Z,77.30
2018-01-28T22:48:09.154Z,77.30
2018-01-28T22:50:41.520Z,77.30
2018-01-28T22:53:09.602Z,77.30
2018-01-28T22:55:37.636Z,77.40
2018-01-28T22:58:05.447Z,77.30
2018-01-28T23:00:33.209Z,77.40
2018-01-28T23:03:00.823Z,77.40
2018-01-28T23:05:28.426Z,77.40
2018-01-28T23:08:05.000Z,77.40
2018-01-28T23:10:32.558Z,77.40
2018-01-28T23:13:00.234Z,77.40
2018-01-28T23:15:28.343Z,77.40
2018-01-28T23:18:05.047Z,77.50
2018-01-28T23:20:35.570Z,77.50
2018-01-28T23:23:03.981Z,77.50
2018-01-28T23:25:32.303Z,77.50
2018-01-28T23:28:05.450Z,77.50
2018-01-28T23:30:33.554Z,77.60
2018-01-28T23:33:01.191Z,77.70
2018-01-28T23:35:28.848Z,77.70
2018-01-28T23:37:56.919Z,77.70
2018-01-28T23:40:25.053Z,77.70
2018-01-28T23:43:05.045Z,77.70
2018-01-28T23:45:46.646Z,77.80
2018-01-28T23:48:17.466Z,77.70
2018-01-28T23:50:53.164Z,77.80
2018-01-28T23:53:21.579Z,77.70
2018-01-28T23:55:49.246Z,77.80
2018-01-28T23:58:17.291Z,77.80
